createdAt,value
2022-10-03T00:00:59.267Z,3.95
2022-10-03T00:06:36.510Z,4.63
2022-10-03T00:12:04.061Z,4.63
2022-10-03T00:17:37.900Z,4.85
2022-10-03T00:23:08.865Z,4.53
2022-10-03T00:29:19.028Z,4.72
2022-10-03T00:34:52.733Z,4.28
2022-10-03T00:40:47.784Z,4.05
2022-10-03T00:46:24.987Z,4.38
2022-10-03T00:52:29.754Z,4.38
2022-10-03T00:58:29.175Z,3.80
2022-10-03T01:04:06.160Z,4.13
2022-10-03T01:10:14.258Z,4.10
2022-10-03T01:15:56.353Z,3.92
2022-10-03T01:22:02.107Z,4.10
2022-10-03T01:27:59.274Z,4.20
2022-10-03T01:33:44.581Z,4.45
2022-10-03T01:39:15.820Z,4.13
2022-10-03T01:44:43.749Z,3.60
2022-10-03T01:50:05.603Z,4.28
2022-10-03T01:55:36.297Z,3.45
2022-10-03T02:01:01.207Z,3.58
2022-10-03T02:06:35.390Z,4.05
2022-10-03T02:12:04.172Z,3.40
2022-10-03T02:17:58.305Z,3.80
2022-10-03T02:23:26.225Z,3.33
2022-10-03T02:29:03.252Z,3.42
2022-10-03T02:34:39.950Z,3.40
2022-10-03T02:40:20.733Z,3.58
2022-10-03T02:46:10.564Z,3.88
2022-10-03T02:51:51.451Z,4.55
2022-10-03T02:57:50.803Z,4.00
2022-10-03T03:03:38.963Z,3.72
2022-10-03T03:09:19.101Z,3.83
2022-10-03T03:15:25.949Z,3.63
2022-10-03T03:21:10.603Z,3.80
2022-10-03T03:26:50.655Z,3.95
2022-10-03T03:32:29.184Z,3.90
2022-10-03T03:37:54.020Z,4.03
2022-10-03T03:43:24.853Z,4.10
2022-10-03T03:48:53.969Z,3.90
2022-10-03T03:54:36.431Z,4.05
2022-10-03T04:00:22.458Z,4.30
2022-10-03T04:06:08.642Z,4.60
2022-10-03T04:11:42.966Z,4.68
2022-10-03T04:17:36.184Z,4.60
2022-10-03T04:23:06.651Z,4.82
2022-10-03T04:29:06.445Z,4.57
2022-10-03T04:34:33.934Z,4.43
2022-10-03T04:40:08.461Z,4.78
2022-10-03T04:45:45.808Z,4.55
2022-10-03T04:51:54.612Z,4.32
2022-10-03T04:57:47.252Z,3.75
2022-10-03T05:03:17.139Z,3.78
2022-10-03T05:08:55.523Z,3.50
2022-10-03T05:14:28.384Z,4.65
2022-10-03T05:20:02.368Z,2.90
2022-10-03T05:25:48.641Z,3.17
2022-10-03T05:31:44.314Z,3.03
2022-10-03T05:37:09.227Z,3.17
2022-10-03T05:42:49.431Z,3.08
2022-10-03T05:48:27.895Z,3.03
2022-10-03T05:54:20.750Z,3.65
2022-10-03T06:00:13.583Z,2.40
2022-10-03T06:05:58.264Z,2.75
2022-10-03T06:12:00.035Z,2.40
2022-10-03T06:17:46.767Z,2.63
2022-10-03T06:23:14.322Z,2.38
2022-10-03T06:28:54.847Z,2.38
2022-10-03T06:34:25.439Z,2.92
2022-10-03T06:40:16.491Z,2.50
2022-10-03T06:45:59.620Z,2.50
2022-10-03T06:51:38.437Z,2.55
2022-10-03T06:57:32.766Z,2.03
2022-10-03T07:03:31.477Z,2.30
2022-10-03T07:09:38.120Z,2.35
2022-10-03T07:16:02.219Z,1.75
2022-10-03T07:21:27.578Z,1.60
2022-10-03T07:27:24.559Z,1.40
2022-10-03T07:33:16.757Z,1.98
2022-10-03T07:38:47.844Z,1.17
2022-10-03T07:44:34.851Z,1.60
2022-10-03T07:50:18.905Z,1.55
2022-10-03T07:56:09.349Z,1.38
2022-10-03T08:01:40.992Z,1.50
2022-10-03T08:07:11.127Z,1.58
2022-10-03T08:12:51.802Z,1.92
2022-10-03T08:18:43.991Z,1.75
2022-10-03T08:24:27.105Z,1.50
2022-10-03T08:30:11.987Z,1.70
2022-10-03T08:35:55.567Z,1.08
2022-10-03T08:41:44.486Z,1.60
2022-10-03T08:47:27.864Z,1.35
2022-10-03T08:53:08.746Z,2.00
2022-10-03T08:58:54.603Z,2.28
2022-10-03T09:04:22.137Z,3.03
2022-10-03T09:10:14.515Z,2.15
2022-10-03T09:15:45.547Z,2.47
2022-10-03T09:21:13.395Z,1.77
2022-10-03T09:27:12.771Z,2.55
2022-10-03T09:32:43.415Z,3.05
2022-10-03T09:38:38.735Z,2.50
2022-10-03T09:44:09.326Z,2.80
2022-10-03T09:50:05.363Z,2.42
2022-10-03T09:55:44.842Z,2.50
2022-10-03T10:01:09.672Z,2.28
2022-10-03T10:07:08.916Z,3.30
2022-10-03T10:12:43.617Z,2.35
2022-10-03T10:18:59.669Z,2.40
2022-10-03T10:24:30.333Z,2.20
2022-10-03T10:30:36.944Z,2.00
2022-10-03T10:36:43.950Z,1.90
2022-10-03T10:42:30.447Z,2.08
2022-10-03T10:48:19.062Z,2.15
2022-10-03T10:53:59.070Z,2.03
2022-10-03T11:00:12.205Z,1.40
2022-10-03T11:05:43.258Z,1.88
2022-10-03T11:11:26.849Z,1.00
2022-10-03T11:17:17.702Z,0.93
2022-10-03T11:23:01.073Z,0.60
2022-10-03T11:28:38.521Z,0.80
2022-10-03T11:34:37.849Z,0.90
2022-10-03T11:40:27.313Z,0.68
2022-10-03T11:46:03.415Z,0.85
2022-10-03T11:51:43.637Z,1.05
2022-10-03T11:57:26.972Z,1.00
2022-10-03T12:03:16.588Z,0.75
2022-10-03T12:08:42.385Z,0.70
2022-10-03T12:14:19.810Z,1.10
2022-10-03T12:19:53.401Z,0.73
2022-10-03T12:25:20.387Z,0.90
2022-10-03T12:30:47.983Z,0.80
2022-10-03T12:36:14.119Z,1.45
2022-10-03T12:42:06.269Z,1.00
2022-10-03T12:47:56.681Z,1.08
2022-10-03T12:53:18.632Z,1.00
2022-10-03T12:58:44.176Z,1.25
2022-10-03T13:04:27.761Z,1.88
2022-10-03T13:10:01.612Z,1.00
2022-10-03T13:15:42.097Z,1.10
2022-10-03T13:27:20.216Z,4.78
2022-10-03T13:32:47.241Z,7.15
2022-10-03T13:38:11.853Z,7.45
2022-10-03T13:43:38.517Z,4.65
2022-10-03T13:54:54.807Z,1.15
2022-10-03T14:00:21.020Z,1.58
2022-10-03T14:06:18.003Z,2.08
2022-10-03T14:12:01.491Z,1.60
2022-10-03T14:17:51.507Z,1.77
2022-10-03T14:23:16.004Z,1.00
2022-10-03T14:28:47.910Z,1.27
2022-10-03T14:34:28.006Z,1.00
2022-10-03T14:40:14.693Z,1.30
2022-10-03T14:45:52.472Z,1.45
2022-10-03T14:51:29.910Z,2.28
2022-10-03T14:56:53.919Z,1.00
2022-10-03T15:02:37.479Z,0.95
2022-10-03T15:07:59.405Z,1.10
2022-10-03T15:13:24.956Z,1.20
2022-10-03T15:18:53.817Z,10.50
2022-10-03T15:24:25.301Z,1.38
2022-10-03T15:29:54.157Z,0.80
2022-10-03T15:35:24.839Z,1.00
2022-10-03T15:40:52.763Z,0.90
2022-10-03T15:46:33.971Z,0.90
2022-10-03T15:51:59.755Z,0.88
2022-10-03T15:57:29.541Z,0.70
2022-10-03T16:03:00.428Z,1.65
2022-10-03T16:08:28.077Z,0.90
2022-10-03T16:14:14.941Z,1.10
2022-10-03T16:19:48.529Z,0.95
2022-10-03T16:25:21.708Z,1.17
2022-10-03T16:30:56.944Z,1.60
2022-10-03T16:36:20.279Z,1.15
2022-10-03T16:41:42.850Z,1.30
2022-10-03T16:47:06.791Z,0.93
2022-10-03T16:52:35.559Z,1.10
2022-10-03T16:58:04.324Z,0.98
2022-10-03T17:03:32.752Z,1.27
2022-10-03T17:08:59.220Z,1.80
2022-10-03T17:14:22.364Z,1.60
2022-10-03T17:19:58.156Z,1.63
2022-10-03T17:25:49.392Z,5.57
2022-10-03T17:31:24.980Z,1.60
2022-10-03T17:36:55.949Z,1.83
2022-10-03T17:42:37.050Z,1.60
2022-10-03T17:48:09.224Z,2.10
2022-10-03T17:53:36.598Z,2.10
2022-10-03T17:59:07.832Z,2.20
2022-10-03T18:04:42.013Z,2.58
2022-10-03T18:10:07.368Z,2.25
2022-10-03T18:16:06.343Z,2.58
2022-10-03T18:21:42.148Z,3.92
2022-10-03T18:27:16.378Z,2.00
2022-10-03T18:32:39.986Z,2.30
2022-10-03T18:38:14.750Z,2.35
2022-10-03T18:43:38.061Z,2.10
2022-10-03T18:49:31.778Z,2.35
2022-10-03T18:55:04.815Z,2.92
2022-10-03T19:00:31.140Z,2.50
2022-10-03T19:06:04.270Z,2.17
2022-10-03T19:11:39.310Z,2.90
2022-10-03T19:17:12.268Z,2.50
2022-10-03T19:22:39.753Z,2.33
2022-10-03T19:28:25.765Z,2.58
2022-10-03T19:33:52.010Z,2.63
2022-10-03T19:39:17.412Z,2.58
2022-10-03T19:44:40.245Z,2.55
2022-10-03T19:50:12.978Z,2.38
2022-10-03T19:55:35.697Z,2.58
2022-10-03T20:01:00.180Z,3.20
2022-10-03T20:06:29.776Z,3.33
2022-10-03T20:12:02.692Z,3.53
2022-10-03T20:17:25.092Z,3.53
2022-10-03T20:22:47.058Z,3.40
2022-10-03T20:28:22.731Z,4.07
2022-10-03T20:33:44.731Z,4.50
2022-10-03T20:39:28.291Z,4.50
2022-10-03T20:45:01.424Z,4.97
2022-10-03T20:50:25.727Z,5.43
2022-10-03T20:55:50.199Z,5.70
2022-10-03T21:01:17.441Z,5.10
2022-10-03T21:06:57.960Z,5.55
2022-10-03T21:12:25.173Z,5.00
2022-10-03T21:17:49.005Z,4.38
2022-10-03T21:23:20.466Z,4.72
2022-10-03T21:28:42.336Z,4.57
2022-10-03T21:34:16.300Z,4.63
2022-10-03T21:40:14.326Z,5.00
2022-10-03T21:45:53.643Z,5.53
2022-10-03T21:51:28.720Z,5.00
2022-10-03T21:57:01.238Z,5.53
2022-10-03T22:02:58.429Z,6.32
2022-10-03T22:08:29.018Z,5.68
2022-10-03T22:13:56.830Z,4.70
2022-10-03T22:19:25.875Z,5.15
2022-10-03T22:25:00.022Z,4.97
2022-10-03T22:30:22.449Z,5.00
2022-10-03T22:35:55.272Z,4.93
2022-10-03T22:41:24.057Z,16.90
2022-10-03T22:46:50.781Z,5.32
2022-10-03T22:57:46.858Z,4.57
2022-10-03T23:03:14.492Z,5.00
2022-10-03T23:08:36.247Z,4.65
2022-10-03T23:14:06.412Z,4.45
2022-10-03T23:19:46.218Z,4.90
2022-10-03T23:25:24.508Z,4.63
2022-10-03T23:30:50.554Z,4.82
2022-10-03T23:36:22.184Z,3.80
2022-10-03T23:41:45.241Z,4.50
2022-10-03T23:47:11.655Z,4.00
2022-10-03T23:52:47.251Z,4.90
2022-10-03T23:58:20.641Z,4.63
